sensor_id;sensor_type;location;lat;lon;timestamp;pressure;altitude;pressure_sealevel;temperature;humidity
37132;BME280;23035;50.032;21.978;2022-10-19T00:04:36;66431.25;;;11.96;100.00
37132;BME280;23035;50.032;21.978;2022-10-19T00:09:42;66386.84;;;11.59;100.00
37132;BME280;23035;50.032;21.978;2022-10-19T00:14:46;66391.50;;;11.59;100.00
37132;BME280;23035;50.032;21.978;2022-10-19T00:19:51;66409.22;;;11.75;100.00
37132;BME280;23035;50.032;21.978;2022-10-19T00:24:56;66402.94;;;11.74;100.00
37132;BME280;23035;50.032;21.978;2022-10-19T00:30:00;66400.63;;;11.67;100.00
37132;BME280;23035;50.032;21.978;2022-10-19T00:35:07;66400.09;;;11.67;100.00
37132;BME280;23035;50.032;21.978;2022-10-19T00:40:11;66416.75;;;11.83;100.00
37132;BME280;23035;50.032;21.978;2022-10-19T00:45:16;66436.09;;;12.01;100.00
37132;BME280;23035;50.032;21.978;2022-10-19T00:50:22;66409.13;;;11.73;100.00
37132;BME280;23035;50.032;21.978;2022-10-19T00:55:26;66423.28;;;11.91;100.00
37132;BME280;23035;50.032;21.978;2022-10-19T01:00:30;66428.72;;;11.99;100.00
37132;BME280;23035;50.032;21.978;2022-10-19T01:05:37;66467.69;;;12.28;100.00
37132;BME280;23035;50.032;21.978;2022-10-19T01:10:45;66472.59;;;12.35;100.00
37132;BME280;23035;50.032;21.978;2022-10-19T01:15:58;66540.84;;;13.00;100.00
37132;BME280;23035;50.032;21.978;2022-10-19T01:21:24;66562.78;;;13.18;100.00
37132;BME280;23035;50.032;21.978;2022-10-19T01:32:07;66514.97;;;12.73;100.00
37132;BME280;23035;50.032;21.978;2022-10-19T01:37:17;66475.91;;;12.41;100.00
37132;BME280;23035;50.032;21.978;2022-10-19T01:42:29;66469.38;;;12.32;100.00
37132;BME280;23035;50.032;21.978;2022-10-19T01:47:41;66467.31;;;12.33;100.00
37132;BME280;23035;50.032;21.978;2022-10-19T01:52:49;66418.44;;;11.87;100.00
37132;BME280;23035;50.032;21.978;2022-10-19T01:57:58;66430.78;;;11.98;100.00
37132;BME280;23035;50.032;21.978;2022-10-19T02:03:06;66446.28;;;12.11;100.00
37132;BME280;23035;50.032;21.978;2022-10-19T02:08:13;66453.34;;;12.20;100.00
37132;BME280;23035;50.032;21.978;2022-10-19T02:13:19;66534.56;;;12.99;100.00
37132;BME280;23035;50.032;21.978;2022-10-19T02:18:28;66495.78;;;12.60;100.00
37132;BME280;23035;50.032;21.978;2022-10-19T02:23:32;66375.94;;;11.44;100.00
37132;BME280;23035;50.032;21.978;2022-10-19T02:28:37;66449.50;;;12.14;100.00
37132;BME280;23035;50.032;21.978;2022-10-19T02:33:45;66465.25;;;12.33;100.00
37132;BME280;23035;50.032;21.978;2022-10-19T02:38:49;66501.00;;;12.60;100.00
37132;BME280;23035;50.032;21.978;2022-10-19T02:43:55;66440.84;;;12.03;100.00
37132;BME280;23035;50.032;21.978;2022-10-19T02:49:03;66448.44;;;12.13;100.00
37132;BME280;23035;50.032;21.978;2022-10-19T02:54:11;66419.44;;;11.85;100.00
37132;BME280;23035;50.032;21.978;2022-10-19T02:59:16;66458.56;;;12.20;100.00
37132;BME280;23035;50.032;21.978;2022-10-19T03:04:21;66517.19;;;12.78;100.00
37132;BME280;23035;50.032;21.978;2022-10-19T03:09:26;66579.63;;;13.39;100.00
37132;BME280;23035;50.032;21.978;2022-10-19T03:14:33;66475.19;;;12.35;100.00
37132;BME280;23035;50.032;21.978;2022-10-19T03:19:38;66504.00;;;12.73;100.00
37132;BME280;23035;50.032;21.978;2022-10-19T03:24:43;66458.66;;;12.22;100.00
37132;BME280;23035;50.032;21.978;2022-10-19T03:29:47;66462.41;;;12.26;100.00
37132;BME280;23035;50.032;21.978;2022-10-19T03:34:52;66491.47;;;12.56;100.00
37132;BME280;23035;50.032;21.978;2022-10-19T03:39:58;66522.63;;;12.85;100.00
37132;BME280;23035;50.032;21.978;2022-10-19T03:45:03;66423.28;;;11.91;100.00
37132;BME280;23035;50.032;21.978;2022-10-19T03:50:09;66423.13;;;11.86;100.00
37132;BME280;23035;50.032;21.978;2022-10-19T03:55:15;66514.66;;;12.80;100.00
37132;BME280;23035;50.032;21.978;2022-10-19T04:00:20;66467.69;;;12.28;100.00
37132;BME280;23035;50.032;21.978;2022-10-19T04:05:25;66448.97;;;12.13;100.00
37132;BME280;23035;50.032;21.978;2022-10-19T04:10:29;66499.47;;;12.61;100.00
37132;BME280;23035;50.032;21.978;2022-10-19T04:15:34;66520.50;;;12.83;100.00
37132;BME280;23035;50.032;21.978;2022-10-19T04:20:42;66480.13;;;12.43;100.00
37132;BME280;23035;50.032;21.978;2022-10-19T04:25:46;66460.78;;;12.24;100.00
37132;BME280;23035;50.032;21.978;2022-10-19T04:30:50;66407.69;;;11.76;100.00
37132;BME280;23035;50.032;21.978;2022-10-19T04:35:58;66411.38;;;11.77;100.00
37132;BME280;23035;50.032;21.978;2022-10-19T04:41:04;66432.31;;;11.97;100.00
37132;BME280;23035;50.032;21.978;2022-10-19T04:46:12;66427.50;;;11.93;100.00
37132;BME280;23035;50.032;21.978;2022-10-19T04:51:19;66476.38;;;12.39;100.00
37132;BME280;23035;50.032;21.978;2022-10-19T04:56:23;66505.38;;;12.67;100.00
37132;BME280;23035;50.032;21.978;2022-10-19T05:01:29;66453.91;;;12.20;100.00
37132;BME280;23035;50.032;21.978;2022-10-19T05:06:35;66407.69;;;11.76;100.00
37132;BME280;23035;50.032;21.978;2022-10-19T05:11:39;66460.31;;;12.26;100.00
37132;BME280;23035;50.032;21.978;2022-10-19T05:16:43;66438.25;;;12.03;100.00
37132;BME280;23035;50.032;21.978;2022-10-19T05:21:48;66419.50;;;11.88;100.00
37132;BME280;23035;50.032;21.978;2022-10-19T05:26:52;66432.94;;;12.00;100.00
37132;BME280;23035;50.032;21.978;2022-10-19T05:31:56;66464.09;;;12.30;100.00
37132;BME280;23035;50.032;21.978;2022-10-19T05:37:01;66482.81;;;12.45;100.00
37132;BME280;23035;50.032;21.978;2022-10-19T05:42:05;66482.28;;;12.45;100.00
37132;BME280;23035;50.032;21.978;2022-10-19T05:47:09;66397.41;;;11.64;100.00
37132;BME280;23035;50.032;21.978;2022-10-19T05:52:14;66456.94;;;12.18;100.00
37132;BME280;23035;50.032;21.978;2022-10-19T05:57:19;66419.44;;;11.85;100.00
37132;BME280;23035;50.032;21.978;2022-10-19T06:02:23;66436.09;;;12.01;100.00
37132;BME280;23035;50.032;21.978;2022-10-19T06:07:28;66453.91;;;12.20;100.00
37132;BME280;23035;50.032;21.978;2022-10-19T06:12:32;66465.16;;;12.31;100.00
37132;BME280;23035;50.032;21.978;2022-10-19T06:17:36;66368.97;;;11.37;100.00
37132;BME280;23035;50.032;21.978;2022-10-19T06:22:42;66392.03;;;11.59;100.00
37132;BME280;23035;50.032;21.978;2022-10-19T06:27:46;66488.78;;;12.53;100.00
37132;BME280;23035;50.032;21.978;2022-10-19T06:32:50;66520.78;;;12.76;100.00
37132;BME280;23035;50.032;21.978;2022-10-19T06:37:58;66499.00;;;12.63;100.00
37132;BME280;23035;50.032;21.978;2022-10-19T06:43:03;66437.69;;;12.02;100.00
37132;BME280;23035;50.032;21.978;2022-10-19T06:48:07;66418.91;;;11.85;100.00
37132;BME280;23035;50.032;21.978;2022-10-19T06:53:12;66440.91;;;12.05;100.00
37132;BME280;23035;50.032;21.978;2022-10-19T06:58:16;66419.91;;;11.83;100.00
37132;BME280;23035;50.032;21.978;2022-10-19T07:03:20;66493.53;;;12.55;100.00
37132;BME280;23035;50.032;21.978;2022-10-19T07:08:29;66490.78;;;12.50;100.00
37132;BME280;23035;50.032;21.978;2022-10-19T07:13:34;66525.25;;;12.85;100.00
37132;BME280;23035;50.032;21.978;2022-10-19T07:18:39;66456.56;;;12.23;100.00
37132;BME280;23035;50.032;21.978;2022-10-19T07:23:45;66533.78;;;12.91;100.00
37132;BME280;23035;50.032;21.978;2022-10-19T07:28:51;66488.78;;;12.53;100.00
37132;BME280;23035;50.032;21.978;2022-10-19T07:33:57;66548.44;;;13.10;100.00
37132;BME280;23035;50.032;21.978;2022-10-19T07:39:03;66548.91;;;13.08;100.00
37132;BME280;23035;50.032;21.978;2022-10-19T07:44:08;66495.09;;;12.54;100.00
37132;BME280;23035;50.032;21.978;2022-10-19T07:49:17;66492.47;;;12.54;100.00
37132;BME280;23035;50.032;21.978;2022-10-19T07:54:24;66576.31;;;13.34;100.00
37132;BME280;23035;50.032;21.978;2022-10-19T07:59:29;66547.38;;;13.09;100.00
37132;BME280;23035;50.032;21.978;2022-10-19T08:04:33;66641.91;;;13.96;100.00
37132;BME280;23035;50.032;21.978;2022-10-19T08:09:58;66582.84;;;13.42;100.00
37132;BME280;23035;50.032;21.978;2022-10-19T08:15:04;66594.59;;;13.51;100.00
37132;BME280;23035;50.032;21.978;2022-10-19T08:20:10;66525.25;;;12.85;100.00
37132;BME280;23035;50.032;21.978;2022-10-19T08:25:15;66511.88;;;12.75;100.00
37132;BME280;23035;50.032;21.978;2022-10-19T08:30:19;66496.75;;;12.58;100.00
37132;BME280;23035;50.032;21.978;2022-10-19T08:35:23;66553.25;;;13.14;100.00
37132;BME280;23035;50.032;21.978;2022-10-19T08:40:30;66461.41;;;12.27;100.00
37132;BME280;23035;50.032;21.978;2022-10-19T08:45:38;66545.13;;;13.04;100.00
37132;BME280;23035;50.032;21.978;2022-10-19T08:50:44;66572.50;;;13.28;100.00
37132;BME280;23035;50.032;21.978;2022-10-19T08:55:59;66564.09;;;13.27;100.00
37132;BME280;23035;50.032;21.978;2022-10-19T09:01:12;66580.16;;;13.40;100.00
37132;BME280;23035;50.032;21.978;2022-10-19T09:06:21;66654.91;;;14.11;100.00
37132;BME280;23035;50.032;21.978;2022-10-19T09:11:30;66674.09;;;14.24;100.00
37132;BME280;23035;50.032;21.978;2022-10-19T09:16:35;66700.56;;;14.51;100.00
37132;BME280;23035;50.032;21.978;2022-10-19T09:21:42;66555.53;;;13.19;100.00
37132;BME280;23035;50.032;21.978;2022-10-19T09:26:53;66515.28;;;12.83;100.00
37132;BME280;23035;50.032;21.978;2022-10-19T09:32:04;66527.38;;;12.87;99.89
37132;BME280;23035;50.032;21.978;2022-10-19T09:37:10;66550.06;;;13.11;100.00
37132;BME280;23035;50.032;21.978;2022-10-19T09:42:26;66547.38;;;13.09;100.00
37132;BME280;23035;50.032;21.978;2022-10-19T09:47:33;66493.53;;;12.55;100.00
37132;BME280;23035;50.032;21.978;2022-10-19T09:52:39;66537.06;;;12.97;100.00
37132;BME280;23035;50.032;21.978;2022-10-19T09:57:47;66518.88;;;12.82;100.00
37132;BME280;23035;50.032;21.978;2022-10-19T10:02:53;66594.22;;;13.56;100.00
37132;BME280;23035;50.032;21.978;2022-10-19T10:07:57;66628.09;;;13.88;100.00
37132;BME280;23035;50.032;21.978;2022-10-19T10:13:04;66529.56;;;12.89;100.00
37132;BME280;23035;50.032;21.978;2022-10-19T10:18:12;66575.31;;;13.35;100.00
37132;BME280;23035;50.032;21.978;2022-10-19T10:23:23;66513.88;;;12.72;100.00
37132;BME280;23035;50.032;21.978;2022-10-19T10:28:29;66473.59;;;12.34;100.00
37132;BME280;23035;50.032;21.978;2022-10-19T10:33:34;66520.50;;;12.83;100.00
37132;BME280;23035;50.032;21.978;2022-10-19T10:38:50;66486.66;;;12.51;100.00
37132;BME280;23035;50.032;21.978;2022-10-19T10:43:57;66512.44;;;12.76;100.00
37132;BME280;23035;50.032;21.978;2022-10-19T10:49:16;66591.44;;;13.51;99.77
37132;BME280;23035;50.032;21.978;2022-10-19T10:54:25;66476.97;;;12.42;100.00
37132;BME280;23035;50.032;21.978;2022-10-19T10:59:30;66505.47;;;12.69;99.43
37132;BME280;23035;50.032;21.978;2022-10-19T11:04:41;66468.31;;;12.31;100.00
37132;BME280;23035;50.032;21.978;2022-10-19T11:09:55;66503.28;;;12.67;100.00
37132;BME280;23035;50.032;21.978;2022-10-19T11:15:05;66523.16;;;12.86;98.15
37132;BME280;23035;50.032;21.978;2022-10-19T11:20:13;66496.84;;;12.61;96.08
37132;BME280;23035;50.032;21.978;2022-10-19T11:25:28;66523.09;;;12.83;92.74
37132;BME280;23035;50.032;21.978;2022-10-19T11:30:45;66523.09;;;12.83;94.83
37132;BME280;23035;50.032;21.978;2022-10-19T11:35:55;66555.94;;;13.17;87.74
37132;BME280;23035;50.032;21.978;2022-10-19T11:41:12;66592.44;;;13.49;86.30
37132;BME280;23035;50.032;21.978;2022-10-19T11:46:22;66618.25;;;13.73;84.67
37132;BME280;23035;50.032;21.978;2022-10-19T11:51:33;66561.44;;;13.25;87.46
37132;BME280;23035;50.032;21.978;2022-10-19T11:56:44;66528.47;;;12.88;92.91
37132;BME280;23035;50.032;21.978;2022-10-19T12:02:22;66567.88;;;13.31;90.39
37132;BME280;23035;50.032;21.978;2022-10-19T12:07:39;66468.31;;;12.31;93.37
37132;BME280;23035;50.032;21.978;2022-10-19T12:12:48;66439.91;;;12.07;94.40
37132;BME280;23035;50.032;21.978;2022-10-19T12:17:58;66497.31;;;12.59;92.10
37132;BME280;23035;50.032;21.978;2022-10-19T12:28:37;66429.66;;;11.95;97.10
37132;BME280;23035;50.032;21.978;2022-10-19T12:33:47;66450.13;;;12.17;96.71
37132;BME280;23035;50.032;21.978;2022-10-19T12:39:00;66445.91;;;12.15;94.55
37132;BME280;23035;50.032;21.978;2022-10-19T12:44:15;66475.81;;;12.39;90.37
37132;BME280;23035;50.032;21.978;2022-10-19T12:49:42;66424.34;;;11.92;92.49
37132;BME280;23035;50.032;21.978;2022-10-19T12:54:47;66443.16;;;12.10;92.21
37132;BME280;23035;50.032;21.978;2022-10-19T12:59:58;66464.00;;;12.27;93.78
37132;BME280;23035;50.032;21.978;2022-10-19T13:05:05;66410.28;;;11.76;93.88
37132;BME280;23035;50.032;21.978;2022-10-19T13:10:19;66435.03;;;12.00;94.69
37132;BME280;23035;50.032;21.978;2022-10-19T13:15:56;66413.09;;;11.82;94.99
37132;BME280;23035;50.032;21.978;2022-10-19T13:21:02;66403.94;;;11.73;96.25
37132;BME280;23035;50.032;21.978;2022-10-19T13:26:23;66451.28;;;12.20;93.98
37132;BME280;23035;50.032;21.978;2022-10-19T13:31:32;66420.75;;;11.94;95.15
37132;BME280;23035;50.032;21.978;2022-10-19T13:36:58;66439.38;;;12.06;97.21
37132;BME280;23035;50.032;21.978;2022-10-19T13:42:02;66458.72;;;12.25;97.63
37132;BME280;23035;50.032;21.978;2022-10-19T13:47:31;66412.97;;;11.79;100.00
37132;BME280;23035;50.032;21.978;2022-10-19T13:53:05;66444.84;;;12.14;100.00
37132;BME280;23035;50.032;21.978;2022-10-19T13:58:29;66441.09;;;12.11;100.00
37132;BME280;23035;50.032;21.978;2022-10-19T14:03:49;66406.00;;;11.72;100.00
37132;BME280;23035;50.032;21.978;2022-10-19T14:09:18;66364.69;;;11.33;100.00
37132;BME280;23035;50.032;21.978;2022-10-19T14:14:24;66442.63;;;12.10;100.00
37132;BME280;23035;50.032;21.978;2022-10-19T14:19:30;66416.31;;;11.85;100.00
37132;BME280;23035;50.032;21.978;2022-10-19T14:24:37;66395.28;;;11.62;100.00
37132;BME280;23035;50.032;21.978;2022-10-19T14:29:45;66375.94;;;11.44;100.00
37132;BME280;23035;50.032;21.978;2022-10-19T14:34:49;66479.75;;;12.47;100.00
37132;BME280;23035;50.032;21.978;2022-10-19T14:40:01;66446.91;;;12.14;100.00
37132;BME280;23035;50.032;21.978;2022-10-19T14:45:13;66378.16;;;11.48;100.00
37132;BME280;23035;50.032;21.978;2022-10-19T14:50:18;66402.41;;;11.74;100.00
37132;BME280;23035;50.032;21.978;2022-10-19T14:55:30;66375.41;;;11.43;100.00
37132;BME280;23035;50.032;21.978;2022-10-19T15:00:35;66340.63;;;11.13;100.00
37132;BME280;23035;50.032;21.978;2022-10-19T15:05:46;66336.31;;;11.09;100.00
37132;BME280;23035;50.032;21.978;2022-10-19T15:10:52;66271.94;;;10.48;100.00
37132;BME280;23035;50.032;21.978;2022-10-19T15:15:56;66252.47;;;10.24;100.00
37132;BME280;23035;50.032;21.978;2022-10-19T15:21:03;66312.25;;;10.88;100.00
37132;BME280;23035;50.032;21.978;2022-10-19T15:26:18;66291.25;;;10.66;100.00
37132;BME280;23035;50.032;21.978;2022-10-19T15:31:24;66320.75;;;10.94;100.00
37132;BME280;23035;50.032;21.978;2022-10-19T15:36:29;66288.03;;;10.63;100.00
37132;BME280;23035;50.032;21.978;2022-10-19T15:41:37;66257.47;;;10.34;100.00
37132;BME280;23035;50.032;21.978;2022-10-19T15:47:13;66290.72;;;10.66;100.00
37132;BME280;23035;50.032;21.978;2022-10-19T15:52:22;66310.56;;;10.84;100.00
37132;BME280;23035;50.032;21.978;2022-10-19T15:57:31;66250.41;;;10.25;100.00
37132;BME280;23035;50.032;21.978;2022-10-19T16:02:39;66292.25;;;10.65;100.00
37132;BME280;23035;50.032;21.978;2022-10-19T16:07:47;66092.94;;;8.78;100.00
37132;BME280;23035;50.032;21.978;2022-10-19T16:12:53;66096.22;;;8.83;100.00
37132;BME280;23035;50.032;21.978;2022-10-19T16:18:01;66045.59;;;8.28;100.00
37132;BME280;23035;50.032;21.978;2022-10-19T16:23:09;66030.25;;;8.18;100.00
37132;BME280;23035;50.032;21.978;2022-10-19T16:28:17;66021.63;;;8.08;100.00
37132;BME280;23035;50.032;21.978;2022-10-19T16:33:26;66014.66;;;8.01;100.00
37132;BME280;23035;50.032;21.978;2022-10-19T16:38:41;66078.38;;;8.61;100.00
37132;BME280;23035;50.032;21.978;2022-10-19T16:43:54;66130.94;;;9.14;100.00
37132;BME280;23035;50.032;21.978;2022-10-19T16:49:02;66084.00;;;8.74;100.00
37132;BME280;23035;50.032;21.978;2022-10-19T16:54:09;66119.09;;;9.00;100.00
37132;BME280;23035;50.032;21.978;2022-10-19T16:59:26;66090.78;;;8.76;100.00
37132;BME280;23035;50.032;21.978;2022-10-19T17:04:41;66084.28;;;8.67;100.00
37132;BME280;23035;50.032;21.978;2022-10-19T17:10:25;66147.47;;;9.27;100.00
37132;BME280;23035;50.032;21.978;2022-10-19T17:15:41;66096.06;;;8.78;100.00
37132;BME280;23035;50.032;21.978;2022-10-19T17:20:48;66151.84;;;9.34;100.00
37132;BME280;23035;50.032;21.978;2022-10-19T17:25:52;66067.22;;;8.53;100.00
37132;BME280;23035;50.032;21.978;2022-10-19T17:31:03;66014.03;;;7.98;100.00
37132;BME280;23035;50.032;21.978;2022-10-19T17:36:09;66127.81;;;9.13;100.00
37132;BME280;23035;50.032;21.978;2022-10-19T17:41:16;66156.50;;;9.33;100.00
37132;BME280;23035;50.032;21.978;2022-10-19T17:46:23;66134.63;;;9.15;100.00
37132;BME280;23035;50.032;21.978;2022-10-19T17:51:31;66117.56;;;9.01;100.00
37132;BME280;23035;50.032;21.978;2022-10-19T17:56:36;66185.63;;;9.66;100.00
37132;BME280;23035;50.032;21.978;2022-10-19T18:01:41;66160.78;;;9.37;100.00
37132;BME280;23035;50.032;21.978;2022-10-19T18:06:45;66149.16;;;9.31;100.00
37132;BME280;23035;50.032;21.978;2022-10-19T18:11:49;66137.84;;;9.18;100.00
37132;BME280;23035;50.032;21.978;2022-10-19T18:16:54;66159.25;;;9.38;100.00
37132;BME280;23035;50.032;21.978;2022-10-19T18:21:58;66201.78;;;9.84;100.00
37132;BME280;23035;50.032;21.978;2022-10-19T18:27:02;66214.00;;;9.93;100.00
37132;BME280;23035;50.032;21.978;2022-10-19T18:32:08;66150.59;;;9.28;100.00
37132;BME280;23035;50.032;21.978;2022-10-19T18:37:12;66112.22;;;8.96;100.00
37132;BME280;23035;50.032;21.978;2022-10-19T18:42:16;66120.34;;;9.06;100.00
37132;BME280;23035;50.032;21.978;2022-10-19T18:47:21;66089.09;;;8.72;100.00
37132;BME280;23035;50.032;21.978;2022-10-19T18:52:25;66049.44;;;8.34;100.00
37132;BME280;23035;50.032;21.978;2022-10-19T18:57:29;66007.69;;;7.94;100.00
37132;BME280;23035;50.032;21.978;2022-10-19T19:02:35;66008.84;;;7.98;100.00
37132;BME280;23035;50.032;21.978;2022-10-19T19:07:49;66062.22;;;8.44;100.00
37132;BME280;23035;50.032;21.978;2022-10-19T19:12:53;66018.50;;;8.07;100.00
37132;BME280;23035;50.032;21.978;2022-10-19T19:17:58;65981.03;;;7.71;100.00
37132;BME280;23035;50.032;21.978;2022-10-19T19:23:02;65987.44;;;7.78;100.00
37132;BME280;23035;50.032;21.978;2022-10-19T19:28:07;65955.69;;;7.42;100.00
37132;BME280;23035;50.032;21.978;2022-10-19T19:33:13;65920.03;;;7.13;100.00
37132;BME280;23035;50.032;21.978;2022-10-19T19:38:21;65941.25;;;7.29;100.00
37132;BME280;23035;50.032;21.978;2022-10-19T19:43:30;66016.34;;;8.05;100.00
37132;BME280;23035;50.032;21.978;2022-10-19T19:48:37;65928.59;;;7.22;100.00
37132;BME280;23035;50.032;21.978;2022-10-19T19:53:42;65943.56;;;7.36;100.00
37132;BME280;23035;50.032;21.978;2022-10-19T19:58:46;65924.84;;;7.18;100.00
37132;BME280;23035;50.032;21.978;2022-10-19T20:03:52;65858.09;;;6.57;100.00
37132;BME280;23035;50.032;21.978;2022-10-19T20:08:56;65883.56;;;6.76;100.00
37132;BME280;23035;50.032;21.978;2022-10-19T20:14:01;65874.47;;;6.68;100.00
37132;BME280;23035;50.032;21.978;2022-10-19T20:19:09;65917.91;;;7.11;100.00
37132;BME280;23035;50.032;21.978;2022-10-19T20:24:14;66098.28;;;8.83;100.00
37132;BME280;23035;50.032;21.978;2022-10-19T20:29:18;66055.97;;;8.43;100.00
37132;BME280;23035;50.032;21.978;2022-10-19T20:34:25;66035.44;;;8.18;100.00
37132;BME280;23035;50.032;21.978;2022-10-19T20:39:29;66030.06;;;8.13;100.00
37132;BME280;23035;50.032;21.978;2022-10-19T20:44:33;65942.94;;;7.33;100.00
37132;BME280;23035;50.032;21.978;2022-10-19T20:49:39;65953.03;;;7.40;100.00
37132;BME280;23035;50.032;21.978;2022-10-19T20:54:47;65905.50;;;6.97;100.00
37132;BME280;23035;50.032;21.978;2022-10-19T20:59:52;65818.34;;;6.14;100.00
37132;BME280;23035;50.032;21.978;2022-10-19T21:05:02;65844.97;;;6.37;100.00
37132;BME280;23035;50.032;21.978;2022-10-19T21:10:07;65854.69;;;6.49;100.00
37132;BME280;23035;50.032;21.978;2022-10-19T21:15:11;65832.25;;;6.27;100.00
37132;BME280;23035;50.032;21.978;2022-10-19T21:20:19;65880.44;;;6.76;100.00
37132;BME280;23035;50.032;21.978;2022-10-19T21:25:24;65787.34;;;5.85;100.00
37132;BME280;23035;50.032;21.978;2022-10-19T21:30:37;65813.56;;;6.10;100.00
37132;BME280;23035;50.032;21.978;2022-10-19T21:35:43;65773.63;;;5.76;100.00
37132;BME280;23035;50.032;21.978;2022-10-19T21:40:55;65742.13;;;5.46;100.00
37132;BME280;23035;50.032;21.978;2022-10-19T21:46:04;65851.03;;;6.48;100.00
37132;BME280;23035;50.032;21.978;2022-10-19T21:51:29;65801.34;;;6.00;100.00
37132;BME280;23035;50.032;21.978;2022-10-19T21:57:15;65915.56;;;7.04;100.00
37132;BME280;23035;50.032;21.978;2022-10-19T22:16:17;65834.41;;;6.29;100.00
37132;BME280;23035;50.032;21.978;2022-10-19T22:22:06;65915.13;;;7.06;100.00
37132;BME280;23035;50.032;21.978;2022-10-19T22:28:11;65954.09;;;7.41;100.00
37132;BME280;23035;50.032;21.978;2022-10-19T22:34:00;65918.97;;;7.12;100.00
37132;BME280;23035;50.032;21.978;2022-10-19T22:39:41;65969.25;;;7.60;100.00
37132;BME280;23035;50.032;21.978;2022-10-19T22:45:18;65837.69;;;6.35;100.00
37132;BME280;23035;50.032;21.978;2022-10-19T22:51:11;65854.81;;;6.51;100.00
37132;BME280;23035;50.032;21.978;2022-10-19T22:56:55;65880.00;;;6.78;100.00
37132;BME280;23035;50.032;21.978;2022-10-19T23:03:07;65837.06;;;6.32;100.00
37132;BME280;23035;50.032;21.978;2022-10-19T23:14:59;65846.69;;;6.41;100.00
37132;BME280;23035;50.032;21.978;2022-10-19T23:21:17;65763.31;;;5.62;100.00
37132;BME280;23035;50.032;21.978;2022-10-19T23:27:58;65735.44;;;5.33;100.00
37132;BME280;23035;50.032;21.978;2022-10-19T23:34:10;65680.00;;;4.82;100.00
37132;BME280;23035;50.032;21.978;2022-10-19T23:40:26;65777.28;;;5.78;100.00
37132;BME280;23035;50.032;21.978;2022-10-19T23:47:01;65759.03;;;5.58;100.00
37132;BME280;23035;50.032;21.978;2022-10-19T23:53:11;65818.34;;;6.14;100.00
